Aérodrome :
LOGIN :

S'inscrire | Disclaimer

   EN    FR    IT 

 










Légende :    VFR   VFR Marginal   IFR   IFR Intensif   IFR Très Intensif
Visi : 
Plafond : 
>= 8 km
>= 3000ft
5 à 8 km
1000 à 3000 ft
1500m à 5 km
500 à 1000 ft
800 à 1500m
200 à 500 ft
< 800m
< 200 ft
Symboles :   Orages  Brouillard  Fortes neiges  Fortes précipitations  Vent > 20 kt
SIGMETs :   Divers  Orages  Givrage  Turbulence  Onde Orograph.  Cendres Volcan.






- Altitude de l'aérodrome : 160 ft
- Code IATA : LRT


LFRH - Lorient Lann Bihoue

DERNIER METAR :
  • 261700Z AUTO 27009KT 9999 FEW034 OVC068 08/02 Q1015 NOSIG

METARs EXPIRÉS :
  • 261630Z AUTO 27010KT CAVOK 09/02 Q1015 NOSIG
  • 261600Z AUTO 28010KT 250V320 CAVOK 09/02 Q1015 NOSIG
  • 261530Z AUTO 28012KT 9999 FEW039 OVC062 09/02 Q1015 NOSIG
  • 261500Z AUTO 28012KT 9999 FEW043 SCT050 BKN070 09/02 Q1015 TEMPO SHRA BKN020TCU
  • 261430Z AUTO 27012KT 9999 SCT041 BKN048 BKN054 09/02 Q1015 TEMPO SHRA BKN020TCU

TAF TAF LFRH
Valide du 26 à 12h jusqu'au 27 à 12h UTC


261100Z 2612/2712 30013KT 9999 SCT030
PROB40
TEMPO 2612/2616 SHRA BKN020TCU
BECMG 2617/2620 23008KT BKN017 OVC050
BECMG 2620/2622 4900 RA BKN010 BKN014
BECMG 2700/2702 22015G28KT 2000 RADZ BKN003 OVC006
BECMG 2707/2709 27022G38KT 9999 NSW BKN020
BECMG 2710/2712 31018G32KT



MET'MAP, la Météo Aéronautique d'un coup d'oeil ! - Copyright ORBIFLY Décembre 2007 - Disclaimer

ORBIFLY MET'MAP TEAM :

Programmation & Développement : Alexandra Zaïnal
Sur une idée originale de : Baudouin d'Aumeries
Assistance à la programmation : Marc-Olivier Méhu
Soutien technique & logistique : Manuel Goepfert

Contact : metmap@orbifly.com




SOURCES & CREDITS :

   NOAA